createdAt,value
2022-08-25T00:00:21.543Z,20.56
2022-08-25T00:02:55.561Z,20.45
2022-08-25T00:05:33.433Z,20.41
2022-08-25T00:08:03.626Z,20.40
2022-08-25T00:10:33.294Z,20.42
2022-08-25T00:13:03.751Z,20.44
2022-08-25T00:15:33.512Z,20.40
2022-08-25T00:18:03.276Z,20.31
2022-08-25T00:20:33.787Z,20.26
2022-08-25T00:23:03.382Z,20.20
2022-08-25T00:25:33.292Z,20.25
2022-08-25T00:28:06.431Z,20.20
2022-08-25T00:30:37.035Z,20.16
2022-08-25T00:33:06.111Z,20.17
2022-08-25T00:35:36.464Z,20.16
2022-08-25T00:38:05.307Z,20.15
2022-08-25T00:40:34.301Z,20.09
2022-08-25T00:43:02.838Z,20.08
2022-08-25T00:45:32.056Z,19.98
2022-08-25T00:48:01.572Z,19.93
2022-08-25T00:50:34.180Z,19.84
2022-08-25T00:53:06.802Z,19.85
2022-08-25T00:55:40.381Z,19.77
2022-08-25T00:58:17.107Z,19.75
2022-08-25T01:00:50.701Z,19.65
2022-08-25T01:03:20.960Z,19.59
2022-08-25T01:05:54.959Z,19.57
2022-08-25T01:08:31.016Z,19.62
2022-08-25T01:11:06.456Z,19.52
2022-08-25T01:13:41.468Z,19.49
2022-08-25T01:16:10.652Z,19.48
2022-08-25T01:18:52.550Z,19.55
2022-08-25T01:21:26.074Z,19.53
2022-08-25T01:23:58.863Z,19.48
2022-08-25T01:26:31.838Z,19.36
2022-08-25T01:29:22.294Z,19.34
2022-08-25T01:31:55.959Z,19.32
2022-08-25T01:34:26.041Z,19.28
2022-08-25T01:36:58.308Z,19.23
2022-08-25T01:39:29.830Z,19.18
2022-08-25T01:42:21.141Z,19.20
2022-08-25T01:44:50.272Z,19.26
2022-08-25T01:47:19.172Z,19.23
2022-08-25T01:49:47.737Z,19.15
2022-08-25T01:52:30.540Z,19.09
2022-08-25T01:54:59.149Z,19.09
2022-08-25T01:57:30.177Z,18.99
2022-08-25T02:00:00.245Z,18.93
2022-08-25T02:02:29.193Z,18.95
2022-08-25T02:05:00.810Z,19.00
2022-08-25T02:07:31.355Z,18.92
2022-08-25T02:10:03.137Z,18.85
2022-08-25T02:12:33.121Z,18.87
2022-08-25T02:15:02.846Z,18.88
2022-08-25T02:17:31.850Z,18.85
2022-08-25T02:20:01.646Z,18.74
2022-08-25T02:22:32.646Z,18.70
2022-08-25T02:25:01.252Z,18.69
2022-08-25T02:27:30.484Z,18.76
2022-08-25T02:29:59.003Z,18.78
2022-08-25T02:32:27.965Z,18.75
2022-08-25T02:34:56.976Z,18.66
2022-08-25T02:37:25.967Z,18.70
2022-08-25T02:39:55.875Z,18.73
2022-08-25T02:42:25.339Z,18.76
2022-08-25T02:44:54.851Z,18.76
2022-08-25T02:47:26.849Z,18.63
2022-08-25T02:49:56.864Z,18.67
2022-08-25T02:52:25.490Z,18.65
2022-08-25T02:54:55.566Z,18.68
2022-08-25T02:57:24.214Z,18.67
2022-08-25T02:59:52.977Z,18.66
2022-08-25T03:02:22.023Z,18.66
2022-08-25T03:04:52.156Z,18.66
2022-08-25T03:07:24.776Z,18.66
2022-08-25T03:09:53.437Z,18.58
2022-08-25T03:12:23.686Z,18.58
2022-08-25T03:14:52.227Z,18.56
2022-08-25T03:17:22.176Z,18.54
2022-08-25T03:19:50.774Z,18.52
2022-08-25T03:22:21.263Z,18.49
2022-08-25T03:24:50.497Z,18.45
2022-08-25T03:27:18.027Z,18.41
2022-08-25T03:29:48.660Z,18.43
2022-08-25T03:32:17.994Z,18.40
2022-08-25T03:34:47.656Z,18.40
2022-08-25T03:37:16.651Z,18.33
2022-08-25T03:39:46.755Z,18.29
2022-08-25T03:42:15.309Z,18.29
2022-08-25T03:44:43.785Z,18.31
2022-08-25T03:47:13.800Z,18.27
2022-08-25T03:49:42.388Z,18.28
2022-08-25T03:52:11.103Z,18.23
2022-08-25T03:54:40.077Z,18.26
2022-08-25T03:57:09.687Z,18.24
2022-08-25T03:59:39.490Z,18.17
2022-08-25T04:02:09.228Z,18.18
2022-08-25T04:04:44.285Z,18.15
2022-08-25T04:07:14.972Z,18.16
2022-08-25T04:09:43.481Z,18.12
2022-08-25T04:12:13.640Z,18.11
2022-08-25T04:14:42.479Z,18.06
2022-08-25T04:17:11.769Z,18.03
2022-08-25T04:19:42.480Z,18.00
2022-08-25T04:22:12.116Z,18.01
2022-08-25T04:24:41.894Z,17.99
2022-08-25T04:27:10.468Z,17.93
2022-08-25T04:29:39.895Z,17.93
2022-08-25T04:32:09.817Z,17.88
2022-08-25T04:34:41.532Z,17.89
2022-08-25T04:37:10.254Z,17.92
2022-08-25T04:39:39.222Z,17.90
2022-08-25T04:42:08.376Z,17.85
2022-08-25T04:44:37.294Z,17.77
2022-08-25T04:47:07.050Z,17.73
2022-08-25T04:49:37.197Z,17.66
2022-08-25T04:52:13.155Z,17.70
2022-08-25T04:54:44.943Z,17.59
2022-08-25T04:57:14.433Z,17.48
2022-08-25T04:59:43.665Z,17.46
2022-08-25T05:02:13.011Z,17.42
2022-08-25T05:04:41.620Z,17.31
2022-08-25T05:07:11.872Z,17.24
2022-08-25T05:09:41.297Z,17.26
2022-08-25T05:12:10.820Z,17.28
2022-08-25T05:14:41.402Z,17.28
2022-08-25T05:17:09.974Z,17.26
2022-08-25T05:19:38.485Z,17.38
2022-08-25T05:22:07.711Z,17.35
2022-08-25T05:24:38.295Z,17.36
2022-08-25T05:27:07.181Z,17.35
2022-08-25T05:29:36.273Z,17.38
2022-08-25T05:32:05.991Z,17.40
2022-08-25T05:34:34.889Z,17.39
2022-08-25T05:37:08.208Z,17.39
2022-08-25T05:39:40.739Z,17.41
2022-08-25T05:42:09.986Z,17.46
2022-08-25T05:44:38.524Z,17.50
2022-08-25T05:47:08.119Z,17.54
2022-08-25T05:49:37.359Z,17.60
2022-08-25T05:52:06.318Z,17.62
2022-08-25T05:54:34.897Z,17.67
2022-08-25T05:57:05.081Z,17.72
2022-08-25T05:59:34.833Z,17.79
2022-08-25T06:02:21.269Z,17.80
2022-08-25T06:04:49.977Z,17.80
2022-08-25T06:07:18.615Z,17.80
2022-08-25T06:09:49.623Z,17.81
2022-08-25T06:12:21.752Z,17.88
2022-08-25T06:14:50.599Z,17.93
2022-08-25T06:17:19.120Z,17.96
2022-08-25T06:19:48.055Z,18.04
2022-08-25T06:22:16.663Z,18.07
2022-08-25T06:24:45.782Z,18.13
2022-08-25T06:27:14.683Z,18.18
2022-08-25T06:29:44.873Z,18.24
2022-08-25T06:32:13.995Z,18.28
2022-08-25T06:34:42.876Z,18.36
2022-08-25T06:37:11.856Z,18.42
2022-08-25T06:39:41.251Z,18.45
2022-08-25T06:42:11.026Z,18.48
2022-08-25T06:44:41.030Z,18.53
2022-08-25T06:47:10.990Z,18.57
2022-08-25T06:49:39.798Z,18.65
2022-08-25T06:52:08.328Z,18.70
2022-08-25T06:54:37.281Z,18.76
2022-08-25T06:57:07.495Z,18.83
2022-08-25T06:59:37.781Z,18.90
2022-08-25T07:02:12.164Z,18.99
2022-08-25T07:04:42.092Z,19.05
2022-08-25T07:07:10.664Z,19.15
2022-08-25T07:09:39.398Z,19.20
2022-08-25T07:12:08.994Z,19.26
2022-08-25T07:14:38.615Z,19.34
2022-08-25T07:17:12.000Z,19.41
2022-08-25T07:19:42.551Z,19.49
2022-08-25T07:22:11.109Z,19.56
2022-08-25T07:24:40.518Z,19.64
2022-08-25T07:27:10.230Z,19.71
2022-08-25T07:29:42.335Z,19.80
2022-08-25T07:32:11.437Z,19.86
2022-08-25T07:34:59.038Z,19.95
2022-08-25T07:37:47.918Z,20.04
2022-08-25T07:40:21.325Z,20.14
2022-08-25T07:42:51.581Z,20.23
2022-08-25T07:45:30.936Z,20.32
2022-08-25T07:48:02.540Z,20.40
2022-08-25T07:50:33.813Z,20.48
2022-08-25T07:53:03.927Z,20.58
2022-08-25T07:55:33.465Z,20.67
2022-08-25T07:58:03.800Z,20.76
2022-08-25T08:00:34.231Z,20.85
2022-08-25T08:03:10.025Z,20.93
2022-08-25T08:05:43.683Z,21.02
2022-08-25T08:08:12.404Z,21.11
2022-08-25T08:11:02.816Z,21.24
2022-08-25T08:13:31.782Z,21.34
2022-08-25T08:16:00.498Z,21.42
2022-08-25T08:18:29.266Z,21.53
2022-08-25T08:20:59.862Z,21.62
2022-08-25T08:23:29.998Z,21.71
2022-08-25T08:25:59.232Z,21.78
2022-08-25T08:28:28.237Z,21.87
2022-08-25T08:30:57.308Z,21.96
2022-08-25T08:33:27.690Z,22.10
2022-08-25T08:36:05.049Z,22.26
2022-08-25T08:38:35.794Z,22.38
2022-08-25T08:41:54.229Z,22.53
2022-08-25T08:44:35.277Z,22.70
2022-08-25T08:47:12.402Z,22.86
2022-08-25T08:49:50.881Z,22.96
2022-08-25T08:52:34.420Z,23.06
2022-08-25T08:55:13.117Z,23.14
2022-08-25T08:57:50.133Z,23.22
2022-08-25T09:00:19.231Z,23.28
2022-08-25T09:02:53.910Z,23.37
2022-08-25T09:05:29.090Z,23.46
2022-08-25T09:08:06.776Z,23.57
2022-08-25T09:10:54.224Z,23.68
2022-08-25T09:13:40.056Z,23.79
2022-08-25T09:16:37.621Z,23.87
2022-08-25T09:19:32.107Z,23.95
2022-08-25T09:22:33.968Z,24.03
2022-08-25T09:25:29.425Z,24.13
2022-08-25T09:28:14.962Z,24.23
2022-08-25T09:30:53.858Z,24.30
2022-08-25T09:33:26.229Z,24.41
2022-08-25T09:35:57.818Z,24.47
2022-08-25T09:38:32.857Z,24.51
2022-08-25T09:41:04.442Z,24.57
2022-08-25T09:43:37.784Z,24.61
2022-08-25T09:46:15.504Z,24.67
2022-08-25T09:48:56.435Z,24.69
2022-08-25T09:51:37.998Z,24.74
2022-08-25T09:54:25.609Z,24.76
2022-08-25T09:57:08.738Z,24.79
2022-08-25T09:59:39.116Z,24.83
2022-08-25T10:02:25.775Z,24.90
2022-08-25T10:04:56.194Z,24.94
2022-08-25T10:07:32.260Z,24.96
2022-08-25T10:10:04.349Z,25.00
2022-08-25T10:12:42.519Z,25.03
2022-08-25T10:15:30.452Z,25.13
2022-08-25T10:18:22.021Z,25.23
2022-08-25T10:21:13.223Z,25.30
2022-08-25T10:23:48.446Z,25.36
2022-08-25T10:26:34.954Z,25.46
2022-08-25T10:29:33.673Z,25.51
2022-08-25T10:32:12.271Z,25.56
2022-08-25T10:34:51.337Z,25.62
2022-08-25T10:37:36.029Z,25.65
2022-08-25T10:40:22.387Z,25.70
2022-08-25T10:43:08.782Z,25.74
2022-08-25T10:45:47.862Z,25.84
2022-08-25T10:48:53.521Z,25.91
2022-08-25T10:51:41.619Z,25.96
2022-08-25T10:54:33.006Z,26.03
2022-08-25T10:57:18.056Z,26.05
2022-08-25T11:00:28.763Z,26.10
2022-08-25T11:03:46.242Z,26.12
2022-08-25T11:06:24.696Z,26.13
2022-08-25T11:08:58.920Z,26.24
2022-08-25T11:11:37.564Z,26.32
2022-08-25T11:14:12.440Z,26.41
2022-08-25T11:16:48.437Z,26.45
2022-08-25T11:19:27.580Z,26.50
2022-08-25T11:22:08.219Z,26.55
2022-08-25T11:25:04.165Z,26.56
2022-08-25T11:27:41.954Z,26.58
2022-08-25T11:30:15.415Z,26.61
2022-08-25T11:32:51.765Z,26.62
2022-08-25T11:35:32.886Z,26.62
2022-08-25T11:38:26.278Z,26.64
2022-08-25T11:41:15.997Z,26.65
2022-08-25T11:44:10.002Z,26.72
2022-08-25T11:47:05.631Z,26.81
2022-08-25T11:49:53.232Z,26.86
2022-08-25T11:52:57.765Z,26.92
2022-08-25T11:55:48.328Z,26.96
2022-08-25T11:58:35.028Z,27.00
2022-08-25T12:01:07.066Z,27.07
2022-08-25T12:04:15.536Z,27.10
2022-08-25T12:07:23.243Z,27.10
2022-08-25T12:10:20.914Z,27.16
2022-08-25T12:13:25.251Z,27.17
2022-08-25T12:16:02.391Z,27.18
2022-08-25T12:18:46.837Z,27.21
2022-08-25T12:21:34.375Z,27.23
2022-08-25T12:24:17.508Z,27.31
2022-08-25T12:26:59.838Z,27.38
2022-08-25T12:29:40.854Z,27.39
2022-08-25T12:32:50.729Z,27.46
2022-08-25T12:35:32.150Z,27.50
2022-08-25T12:38:11.238Z,27.55
2022-08-25T12:41:03.389Z,27.62
2022-08-25T12:43:37.542Z,27.64
2022-08-25T12:46:37.527Z,27.70
2022-08-25T12:49:32.998Z,27.75
2022-08-25T12:52:08.364Z,27.80
2022-08-25T12:54:49.958Z,27.87
2022-08-25T12:57:40.544Z,27.96
2022-08-25T13:00:19.831Z,27.99
2022-08-25T13:03:34.998Z,28.03
2022-08-25T13:06:28.330Z,27.98
2022-08-25T13:09:40.490Z,28.07
2022-08-25T13:12:21.589Z,28.14
2022-08-25T13:14:56.434Z,28.23
2022-08-25T13:17:33.766Z,28.34
2022-08-25T13:20:23.915Z,28.40
2022-08-25T13:23:00.958Z,28.44
2022-08-25T13:25:34.662Z,28.50
2022-08-25T13:28:11.161Z,28.58
2022-08-25T13:30:40.293Z,28.66
2022-08-25T13:33:22.312Z,28.72
2022-08-25T13:36:15.126Z,28.79
2022-08-25T13:38:45.749Z,28.99
2022-08-25T13:41:29.246Z,29.41
2022-08-25T13:44:01.875Z,29.85
2022-08-25T13:46:32.032Z,30.32
2022-08-25T13:49:08.632Z,30.70
2022-08-25T13:51:39.769Z,31.03
2022-08-25T13:54:26.864Z,31.30
2022-08-25T13:57:05.009Z,31.29
2022-08-25T13:59:40.501Z,31.31
2022-08-25T14:02:19.300Z,31.31
2022-08-25T14:04:52.835Z,31.28
2022-08-25T14:07:33.688Z,31.25
2022-08-25T14:10:08.787Z,31.32
2022-08-25T14:12:45.251Z,31.32
2022-08-25T14:15:32.763Z,31.33
2022-08-25T14:18:07.338Z,31.35
2022-08-25T14:20:46.299Z,31.31
2022-08-25T14:23:20.130Z,31.27
2022-08-25T14:25:51.534Z,31.15
2022-08-25T14:28:24.061Z,31.06
2022-08-25T14:30:57.509Z,30.98
2022-08-25T14:33:34.167Z,31.03
2022-08-25T14:36:06.131Z,31.01
2022-08-25T14:38:41.177Z,31.01
2022-08-25T14:41:12.738Z,31.04
2022-08-25T14:43:41.415Z,31.15
2022-08-25T14:46:21.430Z,31.24
2022-08-25T14:48:55.732Z,31.24
2022-08-25T14:51:27.833Z,31.25
2022-08-25T14:54:03.032Z,31.33
2022-08-25T14:56:34.517Z,31.41
2022-08-25T14:59:03.526Z,31.44
2022-08-25T15:01:34.184Z,31.44
2022-08-25T15:04:09.049Z,31.38
2022-08-25T15:06:41.903Z,31.34
2022-08-25T15:09:16.693Z,31.37
2022-08-25T15:11:51.463Z,31.44
2022-08-25T15:14:28.956Z,31.55
2022-08-25T15:17:03.051Z,31.63
2022-08-25T15:19:31.980Z,31.72
2022-08-25T15:22:02.361Z,31.75
2022-08-25T15:24:33.883Z,31.83
2022-08-25T15:27:10.062Z,31.90
2022-08-25T15:29:40.415Z,31.92
2022-08-25T15:32:10.678Z,31.93
2022-08-25T15:34:39.744Z,32.01
2022-08-25T15:37:12.546Z,32.05
2022-08-25T15:39:43.222Z,32.03
2022-08-25T15:42:13.994Z,31.96
2022-08-25T15:44:43.532Z,31.86
2022-08-25T15:47:22.434Z,31.76
2022-08-25T15:49:52.607Z,31.73
2022-08-25T15:52:25.906Z,31.70
2022-08-25T15:54:57.050Z,31.66
2022-08-25T15:57:40.180Z,31.67
2022-08-25T16:00:16.762Z,31.65
2022-08-25T16:02:46.397Z,31.57
2022-08-25T16:05:16.127Z,31.53
2022-08-25T16:07:51.509Z,31.48
2022-08-25T16:10:21.055Z,31.42
2022-08-25T16:12:50.451Z,31.40
2022-08-25T16:15:23.718Z,31.39
2022-08-25T16:17:59.171Z,31.35
2022-08-25T16:20:28.555Z,31.25
2022-08-25T16:23:01.231Z,31.23
2022-08-25T16:25:30.064Z,31.18
2022-08-25T16:27:58.671Z,31.16
2022-08-25T16:30:27.628Z,31.17
2022-08-25T16:32:56.485Z,31.16
2022-08-25T16:35:27.975Z,31.11
2022-08-25T16:38:07.364Z,31.09
2022-08-25T16:40:40.511Z,31.07
2022-08-25T16:43:11.054Z,31.07
2022-08-25T16:45:39.982Z,31.03
2022-08-25T16:48:09.418Z,31.02
2022-08-25T16:50:40.789Z,31.00
2022-08-25T16:53:28.132Z,31.00
2022-08-25T16:56:03.259Z,30.97
2022-08-25T16:58:33.181Z,30.93
2022-08-25T17:01:10.062Z,30.86
2022-08-25T17:03:40.627Z,30.76
2022-08-25T17:06:14.196Z,30.69
2022-08-25T17:08:45.181Z,30.63
2022-08-25T17:11:19.505Z,30.60
2022-08-25T17:13:53.369Z,30.51
2022-08-25T17:16:29.954Z,30.41
2022-08-25T17:19:05.141Z,30.37
2022-08-25T17:21:38.112Z,30.32
2022-08-25T17:24:09.665Z,30.22
2022-08-25T17:26:41.563Z,30.17
2022-08-25T17:29:11.609Z,30.15
2022-08-25T17:31:43.098Z,30.11
2022-08-25T17:34:21.414Z,30.08
2022-08-25T17:36:52.185Z,30.05
2022-08-25T17:39:23.627Z,30.02
2022-08-25T17:41:55.924Z,29.94
2022-08-25T17:44:24.597Z,29.90
2022-08-25T17:46:53.225Z,29.84
2022-08-25T17:49:23.593Z,29.77
2022-08-25T17:51:52.206Z,29.70
2022-08-25T17:54:22.357Z,29.64
2022-08-25T17:56:50.814Z,29.59
2022-08-25T17:59:19.923Z,29.52
2022-08-25T18:01:50.139Z,29.44
2022-08-25T18:04:24.121Z,29.33
2022-08-25T18:06:58.701Z,29.26
2022-08-25T18:09:28.750Z,29.17
2022-08-25T18:11:57.782Z,29.11
2022-08-25T18:14:26.216Z,29.04
2022-08-25T18:16:55.312Z,28.94
2022-08-25T18:19:23.920Z,28.86
2022-08-25T18:21:52.759Z,28.78
2022-08-25T18:24:21.433Z,28.69
2022-08-25T18:26:53.648Z,28.61
2022-08-25T18:29:22.126Z,28.49
2022-08-25T18:31:54.291Z,28.38
2022-08-25T18:34:25.911Z,28.29
2022-08-25T18:37:19.345Z,28.17
2022-08-25T18:40:05.248Z,28.11
2022-08-25T18:42:37.307Z,28.02
2022-08-25T18:45:12.477Z,27.90
2022-08-25T18:47:41.584Z,27.82
2022-08-25T18:50:10.802Z,27.79
2022-08-25T18:52:39.789Z,27.68
2022-08-25T18:55:09.325Z,27.56
2022-08-25T18:57:41.736Z,27.57
2022-08-25T19:00:21.537Z,27.47
2022-08-25T19:02:52.843Z,27.40
2022-08-25T19:05:27.891Z,27.37
2022-08-25T19:07:57.265Z,27.30
2022-08-25T19:10:26.054Z,27.22
2022-08-25T19:12:57.041Z,27.13
2022-08-25T19:15:26.742Z,27.05
2022-08-25T19:17:55.712Z,26.96
2022-08-25T19:20:27.508Z,26.89
2022-08-25T19:22:56.550Z,26.84
2022-08-25T19:25:26.685Z,26.82
2022-08-25T19:28:05.794Z,26.74
2022-08-25T19:30:35.728Z,26.65
2022-08-25T19:33:11.529Z,26.55
2022-08-25T19:35:46.515Z,26.36
2022-08-25T19:38:33.411Z,26.29
2022-08-25T19:41:13.872Z,26.28
2022-08-25T19:43:56.695Z,26.27
2022-08-25T19:46:32.630Z,26.21
2022-08-25T19:49:07.639Z,26.13
2022-08-25T19:51:38.548Z,26.07
2022-08-25T19:54:12.085Z,25.97
2022-08-25T19:56:43.887Z,25.86
2022-08-25T19:59:40.672Z,25.86
2022-08-25T20:02:16.004Z,25.76
2022-08-25T20:04:49.845Z,25.65
2022-08-25T20:07:22.830Z,25.64
2022-08-25T20:09:53.460Z,25.58
2022-08-25T20:12:24.698Z,25.49
2022-08-25T20:14:56.130Z,25.46
2022-08-25T20:17:28.253Z,25.34
2022-08-25T20:20:00.601Z,25.19
2022-08-25T20:22:32.746Z,25.12
2022-08-25T20:25:07.636Z,25.12
2022-08-25T20:27:47.634Z,25.02
2022-08-25T20:30:22.732Z,25.02
2022-08-25T20:32:52.464Z,24.90
2022-08-25T20:35:27.252Z,24.86
2022-08-25T20:37:57.516Z,24.85
2022-08-25T20:40:30.717Z,24.76
2022-08-25T20:43:03.371Z,24.76
2022-08-25T20:45:33.646Z,24.71
2022-08-25T20:48:02.317Z,24.65
2022-08-25T20:50:31.357Z,24.62
2022-08-25T20:53:00.199Z,24.49
2022-08-25T20:55:29.838Z,24.33
2022-08-25T20:57:58.481Z,24.35
2022-08-25T21:00:27.192Z,24.37
2022-08-25T21:02:57.244Z,24.31
2022-08-25T21:05:26.053Z,24.24
2022-08-25T21:07:54.965Z,24.09
2022-08-25T21:10:23.923Z,24.01
2022-08-25T21:12:53.179Z,23.94
2022-08-25T21:15:22.535Z,23.85
2022-08-25T21:17:53.202Z,23.80
2022-08-25T21:20:26.163Z,23.80
2022-08-25T21:22:55.414Z,23.74
2022-08-25T21:25:25.455Z,23.68
2022-08-25T21:27:55.118Z,23.67
2022-08-25T21:30:26.259Z,23.70
2022-08-25T21:32:57.034Z,23.73
2022-08-25T21:35:27.879Z,23.65
2022-08-25T21:37:57.748Z,23.48
2022-08-25T21:40:27.098Z,23.37
2022-08-25T21:42:56.295Z,23.28
2022-08-25T21:45:24.778Z,23.31
2022-08-25T21:47:53.371Z,23.33
2022-08-25T21:50:22.675Z,23.35
2022-08-25T21:52:54.306Z,23.28
2022-08-25T21:55:23.773Z,23.20
2022-08-25T21:57:53.243Z,23.17
2022-08-25T22:00:23.460Z,23.12
2022-08-25T22:02:52.990Z,23.05
2022-08-25T22:05:21.414Z,22.92
2022-08-25T22:07:52.239Z,22.86
2022-08-25T22:10:22.090Z,22.89
2022-08-25T22:12:52.919Z,22.88
2022-08-25T22:15:23.341Z,22.86
2022-08-25T22:17:52.742Z,22.88
2022-08-25T22:20:21.409Z,22.90
2022-08-25T22:22:51.281Z,22.87
2022-08-25T22:25:20.051Z,22.72
2022-08-25T22:27:48.818Z,22.61
2022-08-25T22:30:25.534Z,22.45
2022-08-25T22:32:59.623Z,22.43
2022-08-25T22:35:28.998Z,22.36
2022-08-25T22:37:59.406Z,22.36
2022-08-25T22:40:29.081Z,22.34
2022-08-25T22:42:57.757Z,22.37
2022-08-25T22:45:27.989Z,22.35
2022-08-25T22:47:56.618Z,22.28
2022-08-25T22:50:25.872Z,22.27
2022-08-25T22:52:54.777Z,22.23
2022-08-25T22:55:28.210Z,22.15
2022-08-25T22:57:59.003Z,22.07
2022-08-25T23:00:29.261Z,22.13
2022-08-25T23:02:57.894Z,22.14
2022-08-25T23:05:26.446Z,22.12
2022-08-25T23:07:56.419Z,22.02
2022-08-25T23:10:26.463Z,21.99
2022-08-25T23:12:56.403Z,21.98
2022-08-25T23:15:25.912Z,21.99
2022-08-25T23:17:55.072Z,21.86
2022-08-25T23:20:44.948Z,21.89
2022-08-25T23:23:14.941Z,21.91
2022-08-25T23:25:45.308Z,21.89
2022-08-25T23:28:14.042Z,21.85
2022-08-25T23:30:44.901Z,21.82
2022-08-25T23:33:21.571Z,21.72
2022-08-25T23:36:00.715Z,21.62
2022-08-25T23:38:30.353Z,21.50
2022-08-25T23:41:00.315Z,21.42
2022-08-25T23:43:29.486Z,21.45
2022-08-25T23:45:58.082Z,21.45
2022-08-25T23:48:26.864Z,21.41
2022-08-25T23:50:55.516Z,21.38
2022-08-25T23:53:25.368Z,21.29
2022-08-25T23:55:54.734Z,21.18
2022-08-25T23:58:27.068Z,21.11
